sensor_id;sensor_type;location;lat;lon;timestamp;temperature;humidity
18408;DHT22;9330;52.210;21.174;2022-11-20T00:01:25;-4.90;99.90
18408;DHT22;9330;52.210;21.174;2022-11-20T00:03:53;-4.90;99.90
18408;DHT22;9330;52.210;21.174;2022-11-20T00:06:21;-4.80;99.90
18408;DHT22;9330;52.210;21.174;2022-11-20T00:08:50;-4.90;99.90
18408;DHT22;9330;52.210;21.174;2022-11-20T00:11:20;-4.90;99.90
18408;DHT22;9330;52.210;21.174;2022-11-20T00:13:49;-5.00;99.90
18408;DHT22;9330;52.210;21.174;2022-11-20T00:16:18;-4.90;99.90
18408;DHT22;9330;52.210;21.174;2022-11-20T00:18:45;-5.00;99.90
18408;DHT22;9330;52.210;21.174;2022-11-20T00:21:14;-5.10;99.90
18408;DHT22;9330;52.210;21.174;2022-11-20T00:23:42;-5.10;99.90
18408;DHT22;9330;52.210;21.174;2022-11-20T00:26:12;-5.00;99.90
18408;DHT22;9330;52.210;21.174;2022-11-20T00:28:41;-5.20;99.90
18408;DHT22;9330;52.210;21.174;2022-11-20T00:31:10;-5.10;99.90
18408;DHT22;9330;52.210;21.174;2022-11-20T00:33:37;-5.10;99.90
18408;DHT22;9330;52.210;21.174;2022-11-20T00:36:06;-5.10;99.90
18408;DHT22;9330;52.210;21.174;2022-11-20T00:38:34;-5.10;99.90
18408;DHT22;9330;52.210;21.174;2022-11-20T00:41:03;-5.10;99.90
18408;DHT22;9330;52.210;21.174;2022-11-20T00:43:31;-5.10;99.90
18408;DHT22;9330;52.210;21.174;2022-11-20T00:46:00;-5.10;99.90
18408;DHT22;9330;52.210;21.174;2022-11-20T00:48:27;-5.10;99.90
18408;DHT22;9330;52.210;21.174;2022-11-20T00:50:55;-5.10;99.90
18408;DHT22;9330;52.210;21.174;2022-11-20T00:53:22;-5.20;99.90
18408;DHT22;9330;52.210;21.174;2022-11-20T00:55:56;-5.10;99.90
18408;DHT22;9330;52.210;21.174;2022-11-20T00:58:24;-5.20;99.90
18408;DHT22;9330;52.210;21.174;2022-11-20T01:00:52;-5.20;99.90
18408;DHT22;9330;52.210;21.174;2022-11-20T01:03:20;-5.10;99.90
18408;DHT22;9330;52.210;21.174;2022-11-20T01:05:47;-5.30;99.90
18408;DHT22;9330;52.210;21.174;2022-11-20T01:08:14;-5.20;99.90
18408;DHT22;9330;52.210;21.174;2022-11-20T01:10:41;-4.90;99.90
18408;DHT22;9330;52.210;21.174;2022-11-20T01:13:08;-5.10;99.90
18408;DHT22;9330;52.210;21.174;2022-11-20T01:15:52;-5.10;99.90
18408;DHT22;9330;52.210;21.174;2022-11-20T01:18:20;-5.20;99.90
18408;DHT22;9330;52.210;21.174;2022-11-20T01:20:48;-5.10;99.90
18408;DHT22;9330;52.210;21.174;2022-11-20T01:23:14;-5.00;99.90
18408;DHT22;9330;52.210;21.174;2022-11-20T01:25:41;-5.10;99.90
18408;DHT22;9330;52.210;21.174;2022-11-20T01:28:08;-4.90;99.90
18408;DHT22;9330;52.210;21.174;2022-11-20T01:30:35;-5.00;99.90
18408;DHT22;9330;52.210;21.174;2022-11-20T01:33:02;-5.10;99.90
18408;DHT22;9330;52.210;21.174;2022-11-20T01:35:30;-5.00;99.90
18408;DHT22;9330;52.210;21.174;2022-11-20T01:37:57;-5.10;99.90
18408;DHT22;9330;52.210;21.174;2022-11-20T01:40:24;-5.10;99.90
18408;DHT22;9330;52.210;21.174;2022-11-20T01:42:59;-5.10;99.90
18408;DHT22;9330;52.210;21.174;2022-11-20T01:48:51;-5.10;99.90
18408;DHT22;9330;52.210;21.174;2022-11-20T01:51:25;-5.20;99.90
18408;DHT22;9330;52.210;21.174;2022-11-20T01:53:57;-5.20;99.90
18408;DHT22;9330;52.210;21.174;2022-11-20T01:56:26;-5.00;99.90
18408;DHT22;9330;52.210;21.174;2022-11-20T01:58:56;-5.00;99.90
18408;DHT22;9330;52.210;21.174;2022-11-20T02:01:24;-5.10;99.90
18408;DHT22;9330;52.210;21.174;2022-11-20T02:03:52;-5.00;99.90
18408;DHT22;9330;52.210;21.174;2022-11-20T02:06:25;-4.90;99.90
18408;DHT22;9330;52.210;21.174;2022-11-20T02:08:52;-5.00;99.90
18408;DHT22;9330;52.210;21.174;2022-11-20T02:11:20;-5.00;99.90
18408;DHT22;9330;52.210;21.174;2022-11-20T02:13:48;-4.80;99.90
18408;DHT22;9330;52.210;21.174;2022-11-20T02:16:18;-5.00;99.90
18408;DHT22;9330;52.210;21.174;2022-11-20T02:18:46;-4.90;99.90
18408;DHT22;9330;52.210;21.174;2022-11-20T02:24:09;-4.90;99.90
18408;DHT22;9330;52.210;21.174;2022-11-20T02:26:47;-4.80;99.90
18408;DHT22;9330;52.210;21.174;2022-11-20T02:29:17;-4.80;99.90
18408;DHT22;9330;52.210;21.174;2022-11-20T02:31:46;-4.80;99.90
18408;DHT22;9330;52.210;21.174;2022-11-20T02:34:13;-4.90;99.90
18408;DHT22;9330;52.210;21.174;2022-11-20T02:36:41;-4.80;99.90
18408;DHT22;9330;52.210;21.174;2022-11-20T02:39:11;-4.80;99.90
18408;DHT22;9330;52.210;21.174;2022-11-20T02:41:42;-4.90;99.90
18408;DHT22;9330;52.210;21.174;2022-11-20T02:44:09;-4.80;99.90
18408;DHT22;9330;52.210;21.174;2022-11-20T02:46:36;-4.80;99.90
18408;DHT22;9330;52.210;21.174;2022-11-20T02:49:03;-4.90;99.90
18408;DHT22;9330;52.210;21.174;2022-11-20T02:51:31;-4.90;99.90
18408;DHT22;9330;52.210;21.174;2022-11-20T02:53:58;-5.00;99.90
18408;DHT22;9330;52.210;21.174;2022-11-20T02:56:27;-5.00;99.90
18408;DHT22;9330;52.210;21.174;2022-11-20T02:58:54;-4.80;99.90
18408;DHT22;9330;52.210;21.174;2022-11-20T03:01:21;-5.00;99.90
18408;DHT22;9330;52.210;21.174;2022-11-20T03:03:48;-5.00;99.90
18408;DHT22;9330;52.210;21.174;2022-11-20T03:06:15;-5.00;99.90
18408;DHT22;9330;52.210;21.174;2022-11-20T03:08:42;-5.00;99.90
18408;DHT22;9330;52.210;21.174;2022-11-20T03:11:09;-5.00;99.90
18408;DHT22;9330;52.210;21.174;2022-11-20T03:13:37;-4.90;99.90
18408;DHT22;9330;52.210;21.174;2022-11-20T03:16:09;-5.10;99.90
18408;DHT22;9330;52.210;21.174;2022-11-20T03:18:37;-5.10;99.90
18408;DHT22;9330;52.210;21.174;2022-11-20T03:21:05;-5.00;99.90
18408;DHT22;9330;52.210;21.174;2022-11-20T03:23:32;-5.20;99.90
18408;DHT22;9330;52.210;21.174;2022-11-20T03:26:10;-5.10;99.90
18408;DHT22;9330;52.210;21.174;2022-11-20T03:28:40;-5.10;99.90
18408;DHT22;9330;52.210;21.174;2022-11-20T03:31:09;-5.10;99.90
18408;DHT22;9330;52.210;21.174;2022-11-20T03:33:36;-5.10;99.90
18408;DHT22;9330;52.210;21.174;2022-11-20T03:36:04;-5.10;99.90
18408;DHT22;9330;52.210;21.174;2022-11-20T03:38:32;-5.20;99.90
18408;DHT22;9330;52.210;21.174;2022-11-20T03:41:00;-5.20;99.90
18408;DHT22;9330;52.210;21.174;2022-11-20T03:43:28;-5.10;99.90
18408;DHT22;9330;52.210;21.174;2022-11-20T03:45:56;-5.10;99.90
18408;DHT22;9330;52.210;21.174;2022-11-20T03:48:23;-5.10;99.90
18408;DHT22;9330;52.210;21.174;2022-11-20T03:50:51;-5.10;99.90
18408;DHT22;9330;52.210;21.174;2022-11-20T03:53:19;-5.10;99.90
18408;DHT22;9330;52.210;21.174;2022-11-20T03:55:50;-5.10;99.90
18408;DHT22;9330;52.210;21.174;2022-11-20T03:58:17;-5.10;99.90
18408;DHT22;9330;52.210;21.174;2022-11-20T04:00:44;-5.00;99.90
18408;DHT22;9330;52.210;21.174;2022-11-20T04:03:12;-5.00;99.90
18408;DHT22;9330;52.210;21.174;2022-11-20T04:05:40;-5.10;99.90
18408;DHT22;9330;52.210;21.174;2022-11-20T04:08:07;-5.00;99.90
18408;DHT22;9330;52.210;21.174;2022-11-20T04:10:33;-5.00;99.90
18408;DHT22;9330;52.210;21.174;2022-11-20T04:13:00;-5.10;99.90
18408;DHT22;9330;52.210;21.174;2022-11-20T04:15:27;-5.00;99.90
18408;DHT22;9330;52.210;21.174;2022-11-20T04:17:54;-5.10;99.90
18408;DHT22;9330;52.210;21.174;2022-11-20T04:20:23;-5.00;99.90
18408;DHT22;9330;52.210;21.174;2022-11-20T04:22:53;-5.00;99.90
18408;DHT22;9330;52.210;21.174;2022-11-20T04:25:20;-5.00;99.90
18408;DHT22;9330;52.210;21.174;2022-11-20T04:27:47;-5.10;99.90
18408;DHT22;9330;52.210;21.174;2022-11-20T04:30:14;-5.10;99.90
18408;DHT22;9330;52.210;21.174;2022-11-20T04:32:41;-5.20;99.90
18408;DHT22;9330;52.210;21.174;2022-11-20T04:35:08;-5.10;99.90
18408;DHT22;9330;52.210;21.174;2022-11-20T04:37:36;-5.20;99.90
18408;DHT22;9330;52.210;21.174;2022-11-20T04:40:04;-5.10;99.90
18408;DHT22;9330;52.210;21.174;2022-11-20T04:42:31;-5.10;99.90
18408;DHT22;9330;52.210;21.174;2022-11-20T04:44:58;-5.10;99.90
18408;DHT22;9330;52.210;21.174;2022-11-20T04:47:25;-5.10;99.90
18408;DHT22;9330;52.210;21.174;2022-11-20T04:49:52;-5.20;99.90
18408;DHT22;9330;52.210;21.174;2022-11-20T04:52:19;-5.20;99.90
18408;DHT22;9330;52.210;21.174;2022-11-20T04:54:47;-5.20;99.90
18408;DHT22;9330;52.210;21.174;2022-11-20T04:57:15;-5.30;99.90
18408;DHT22;9330;52.210;21.174;2022-11-20T04:59:42;-5.20;99.90
18408;DHT22;9330;52.210;21.174;2022-11-20T05:02:09;-5.30;99.90
18408;DHT22;9330;52.210;21.174;2022-11-20T05:04:36;-5.20;99.90
18408;DHT22;9330;52.210;21.174;2022-11-20T05:07:04;-5.30;99.90
18408;DHT22;9330;52.210;21.174;2022-11-20T05:09:30;-5.10;99.90
18408;DHT22;9330;52.210;21.174;2022-11-20T05:11:59;-5.20;99.90
18408;DHT22;9330;52.210;21.174;2022-11-20T05:14:26;-5.40;99.90
18408;DHT22;9330;52.210;21.174;2022-11-20T05:16:53;-5.30;99.90
18408;DHT22;9330;52.210;21.174;2022-11-20T05:19:20;-5.30;99.90
18408;DHT22;9330;52.210;21.174;2022-11-20T05:21:47;-5.30;99.90
18408;DHT22;9330;52.210;21.174;2022-11-20T05:24:14;-5.10;99.90
18408;DHT22;9330;52.210;21.174;2022-11-20T05:26:41;-5.00;99.90
18408;DHT22;9330;52.210;21.174;2022-11-20T05:29:11;-5.20;99.90
18408;DHT22;9330;52.210;21.174;2022-11-20T05:31:39;-5.40;99.90
18408;DHT22;9330;52.210;21.174;2022-11-20T05:34:07;-5.30;99.90
18408;DHT22;9330;52.210;21.174;2022-11-20T05:36:34;-5.40;99.90
18408;DHT22;9330;52.210;21.174;2022-11-20T05:39:01;-5.50;99.90
18408;DHT22;9330;52.210;21.174;2022-11-20T05:41:28;-5.40;99.90
18408;DHT22;9330;52.210;21.174;2022-11-20T05:43:56;-5.40;99.90
18408;DHT22;9330;52.210;21.174;2022-11-20T05:46:26;-5.40;99.90
18408;DHT22;9330;52.210;21.174;2022-11-20T05:48:53;-5.50;99.90
18408;DHT22;9330;52.210;21.174;2022-11-20T05:51:19;-5.50;99.90
18408;DHT22;9330;52.210;21.174;2022-11-20T05:53:46;-5.60;99.90
18408;DHT22;9330;52.210;21.174;2022-11-20T05:56:16;-5.60;99.90
18408;DHT22;9330;52.210;21.174;2022-11-20T05:58:43;-5.70;99.90
18408;DHT22;9330;52.210;21.174;2022-11-20T06:01:12;-5.60;99.90
18408;DHT22;9330;52.210;21.174;2022-11-20T06:03:41;-5.70;99.90
18408;DHT22;9330;52.210;21.174;2022-11-20T06:06:11;-5.50;99.90
18408;DHT22;9330;52.210;21.174;2022-11-20T06:08:38;-5.70;99.90
18408;DHT22;9330;52.210;21.174;2022-11-20T06:11:06;-5.70;99.90
18408;DHT22;9330;52.210;21.174;2022-11-20T06:13:34;-5.70;99.90
18408;DHT22;9330;52.210;21.174;2022-11-20T06:16:01;-5.80;99.90
18408;DHT22;9330;52.210;21.174;2022-11-20T06:18:29;-5.90;99.90
18408;DHT22;9330;52.210;21.174;2022-11-20T06:21:02;-5.90;99.90
18408;DHT22;9330;52.210;21.174;2022-11-20T06:23:31;-5.90;99.90
18408;DHT22;9330;52.210;21.174;2022-11-20T06:26:00;-6.00;99.90
18408;DHT22;9330;52.210;21.174;2022-11-20T06:28:27;-5.80;99.90
18408;DHT22;9330;52.210;21.174;2022-11-20T06:30:54;-6.00;99.90
18408;DHT22;9330;52.210;21.174;2022-11-20T06:33:21;-6.10;99.90
18408;DHT22;9330;52.210;21.174;2022-11-20T06:35:48;-6.00;99.90
18408;DHT22;9330;52.210;21.174;2022-11-20T06:38:16;-6.00;99.90
18408;DHT22;9330;52.210;21.174;2022-11-20T06:40:43;-6.00;99.90
18408;DHT22;9330;52.210;21.174;2022-11-20T06:43:10;-5.90;99.90
18408;DHT22;9330;52.210;21.174;2022-11-20T06:45:37;-5.90;99.90
18408;DHT22;9330;52.210;21.174;2022-11-20T06:48:05;-5.90;99.90
18408;DHT22;9330;52.210;21.174;2022-11-20T06:50:31;-5.80;99.90
18408;DHT22;9330;52.210;21.174;2022-11-20T06:53:01;-5.80;99.90
18408;DHT22;9330;52.210;21.174;2022-11-20T06:55:31;-5.80;99.90
18408;DHT22;9330;52.210;21.174;2022-11-20T06:57:58;-5.80;99.90
18408;DHT22;9330;52.210;21.174;2022-11-20T07:00:25;-5.70;99.90
18408;DHT22;9330;52.210;21.174;2022-11-20T07:02:52;-5.70;99.90
18408;DHT22;9330;52.210;21.174;2022-11-20T07:05:19;-5.70;99.90
18408;DHT22;9330;52.210;21.174;2022-11-20T07:07:46;-5.60;99.90
18408;DHT22;9330;52.210;21.174;2022-11-20T07:10:13;-5.50;99.90
18408;DHT22;9330;52.210;21.174;2022-11-20T07:12:41;-5.40;99.90
18408;DHT22;9330;52.210;21.174;2022-11-20T07:15:08;-5.20;99.90
18408;DHT22;9330;52.210;21.174;2022-11-20T07:17:35;-4.90;99.90
18408;DHT22;9330;52.210;21.174;2022-11-20T07:20:02;-4.80;99.90
18408;DHT22;9330;52.210;21.174;2022-11-20T07:22:30;-4.60;99.90
18408;DHT22;9330;52.210;21.174;2022-11-20T07:24:56;-4.50;99.90
18408;DHT22;9330;52.210;21.174;2022-11-20T07:27:24;-4.40;99.90
18408;DHT22;9330;52.210;21.174;2022-11-20T07:29:52;-4.20;99.90
18408;DHT22;9330;52.210;21.174;2022-11-20T07:32:19;-4.20;99.90
18408;DHT22;9330;52.210;21.174;2022-11-20T07:34:46;-3.80;99.90
18408;DHT22;9330;52.210;21.174;2022-11-20T07:37:13;-3.90;99.90
18408;DHT22;9330;52.210;21.174;2022-11-20T07:39:40;-3.70;99.90
18408;DHT22;9330;52.210;21.174;2022-11-20T07:42:07;-3.60;99.90
18408;DHT22;9330;52.210;21.174;2022-11-20T07:44:35;-3.50;99.90
18408;DHT22;9330;52.210;21.174;2022-11-20T07:47:03;-3.10;99.90
18408;DHT22;9330;52.210;21.174;2022-11-20T07:49:30;-3.20;99.90
18408;DHT22;9330;52.210;21.174;2022-11-20T07:51:57;-2.90;99.90
18408;DHT22;9330;52.210;21.174;2022-11-20T07:54:24;-2.40;99.90
18408;DHT22;9330;52.210;21.174;2022-11-20T07:56:51;-2.50;99.90
18408;DHT22;9330;52.210;21.174;2022-11-20T07:59:18;-2.20;99.90
18408;DHT22;9330;52.210;21.174;2022-11-20T08:01:45;-2.40;99.90
18408;DHT22;9330;52.210;21.174;2022-11-20T08:04:13;-2.30;99.90
18408;DHT22;9330;52.210;21.174;2022-11-20T08:06:41;-2.30;99.90
18408;DHT22;9330;52.210;21.174;2022-11-20T08:09:08;-2.30;99.90
18408;DHT22;9330;52.210;21.174;2022-11-20T08:11:36;-2.00;99.90
18408;DHT22;9330;52.210;21.174;2022-11-20T08:14:20;-2.10;99.90
18408;DHT22;9330;52.210;21.174;2022-11-20T08:16:49;-2.00;99.90
18408;DHT22;9330;52.210;21.174;2022-11-20T08:19:18;-1.80;99.90
18408;DHT22;9330;52.210;21.174;2022-11-20T08:21:45;-1.70;99.90
18408;DHT22;9330;52.210;21.174;2022-11-20T08:24:12;-1.50;99.90
18408;DHT22;9330;52.210;21.174;2022-11-20T08:26:40;-1.40;99.90
18408;DHT22;9330;52.210;21.174;2022-11-20T08:29:07;-1.20;99.90
18408;DHT22;9330;52.210;21.174;2022-11-20T08:31:34;-1.10;99.90
18408;DHT22;9330;52.210;21.174;2022-11-20T08:34:01;-1.10;99.90
18408;DHT22;9330;52.210;21.174;2022-11-20T08:36:33;-0.90;99.90
18408;DHT22;9330;52.210;21.174;2022-11-20T08:39:00;-0.70;99.90
18408;DHT22;9330;52.210;21.174;2022-11-20T08:41:29;-0.60;99.90
18408;DHT22;9330;52.210;21.174;2022-11-20T08:44:00;-0.50;99.90
18408;DHT22;9330;52.210;21.174;2022-11-20T08:46:31;-0.50;99.90
18408;DHT22;9330;52.210;21.174;2022-11-20T08:48:59;-0.40;99.90
18408;DHT22;9330;52.210;21.174;2022-11-20T08:51:26;-0.40;99.90
18408;DHT22;9330;52.210;21.174;2022-11-20T08:53:55;-0.50;99.90
18408;DHT22;9330;52.210;21.174;2022-11-20T08:56:22;-0.80;99.90
18408;DHT22;9330;52.210;21.174;2022-11-20T08:58:50;-0.80;99.90
18408;DHT22;9330;52.210;21.174;2022-11-20T09:01:18;-1.10;99.90
18408;DHT22;9330;52.210;21.174;2022-11-20T09:03:45;-1.00;99.90
18408;DHT22;9330;52.210;21.174;2022-11-20T09:06:13;-1.10;99.90
18408;DHT22;9330;52.210;21.174;2022-11-20T09:08:40;-1.10;99.90
18408;DHT22;9330;52.210;21.174;2022-11-20T09:11:08;-1.10;99.90
18408;DHT22;9330;52.210;21.174;2022-11-20T09:13:36;-1.00;99.90
18408;DHT22;9330;52.210;21.174;2022-11-20T09:16:05;-1.00;99.90
18408;DHT22;9330;52.210;21.174;2022-11-20T09:18:34;-0.90;99.90
18408;DHT22;9330;52.210;21.174;2022-11-20T09:21:03;-1.00;99.90
18408;DHT22;9330;52.210;21.174;2022-11-20T09:23:32;-1.00;99.90
18408;DHT22;9330;52.210;21.174;2022-11-20T09:26:02;-1.00;99.90
18408;DHT22;9330;52.210;21.174;2022-11-20T09:28:31;-1.00;99.90
18408;DHT22;9330;52.210;21.174;2022-11-20T09:30:59;-1.00;99.90
18408;DHT22;9330;52.210;21.174;2022-11-20T09:33:26;-1.00;99.90
18408;DHT22;9330;52.210;21.174;2022-11-20T09:35:53;-1.10;99.90
18408;DHT22;9330;52.210;21.174;2022-11-20T09:38:21;-1.10;99.90
18408;DHT22;9330;52.210;21.174;2022-11-20T09:40:53;-1.10;99.90
18408;DHT22;9330;52.210;21.174;2022-11-20T09:43:29;-1.10;99.90
18408;DHT22;9330;52.210;21.174;2022-11-20T09:46:06;-1.10;99.90
18408;DHT22;9330;52.210;21.174;2022-11-20T09:48:46;-1.20;99.90
18408;DHT22;9330;52.210;21.174;2022-11-20T09:51:23;-1.20;99.90
18408;DHT22;9330;52.210;21.174;2022-11-20T09:54:10;-1.10;99.90
18408;DHT22;9330;52.210;21.174;2022-11-20T09:56:42;-1.10;99.90
18408;DHT22;9330;52.210;21.174;2022-11-20T09:59:19;-1.00;99.90
18408;DHT22;9330;52.210;21.174;2022-11-20T10:01:50;-1.00;99.90
18408;DHT22;9330;52.210;21.174;2022-11-20T10:04:19;-1.00;99.90
18408;DHT22;9330;52.210;21.174;2022-11-20T10:06:52;-0.90;99.90
18408;DHT22;9330;52.210;21.174;2022-11-20T10:09:29;-0.90;99.90
18408;DHT22;9330;52.210;21.174;2022-11-20T10:12:11;-0.80;99.90
18408;DHT22;9330;52.210;21.174;2022-11-20T10:14:50;-0.80;99.90
18408;DHT22;9330;52.210;21.174;2022-11-20T10:17:33;-0.80;99.90
18408;DHT22;9330;52.210;21.174;2022-11-20T10:20:16;-0.80;99.90
18408;DHT22;9330;52.210;21.174;2022-11-20T10:22:57;-0.60;99.90
18408;DHT22;9330;52.210;21.174;2022-11-20T10:25:34;-0.70;99.90
18408;DHT22;9330;52.210;21.174;2022-11-20T10:28:22;-0.50;99.90
18408;DHT22;9330;52.210;21.174;2022-11-20T10:30:56;-0.60;99.90
18408;DHT22;9330;52.210;21.174;2022-11-20T10:33:26;-0.40;99.90
18408;DHT22;9330;52.210;21.174;2022-11-20T10:36:05;-0.60;99.90
18408;DHT22;9330;52.210;21.174;2022-11-20T10:38:37;-0.60;99.90
18408;DHT22;9330;52.210;21.174;2022-11-20T10:41:06;-0.50;99.90
18408;DHT22;9330;52.210;21.174;2022-11-20T10:43:53;-0.40;99.90
18408;DHT22;9330;52.210;21.174;2022-11-20T10:46:23;-0.40;99.90
18408;DHT22;9330;52.210;21.174;2022-11-20T10:48:53;-0.40;99.90
18408;DHT22;9330;52.210;21.174;2022-11-20T10:51:30;-0.40;99.90
18408;DHT22;9330;52.210;21.174;2022-11-20T10:54:06;-0.40;99.90
18408;DHT22;9330;52.210;21.174;2022-11-20T10:56:39;-0.30;99.90
18408;DHT22;9330;52.210;21.174;2022-11-20T10:59:31;-0.40;99.90
18408;DHT22;9330;52.210;21.174;2022-11-20T11:02:12;-0.40;99.90
18408;DHT22;9330;52.210;21.174;2022-11-20T11:04:44;-0.30;99.90
18408;DHT22;9330;52.210;21.174;2022-11-20T11:07:15;-0.30;99.90
18408;DHT22;9330;52.210;21.174;2022-11-20T11:09:44;-0.30;99.90
18408;DHT22;9330;52.210;21.174;2022-11-20T11:12:13;-0.20;99.90
18408;DHT22;9330;52.210;21.174;2022-11-20T11:14:45;-0.10;99.90
18408;DHT22;9330;52.210;21.174;2022-11-20T11:17:25;-0.10;99.90
18408;DHT22;9330;52.210;21.174;2022-11-20T11:20:15;0.00;99.90
18408;DHT22;9330;52.210;21.174;2022-11-20T11:22:44;0.00;99.90
18408;DHT22;9330;52.210;21.174;2022-11-20T11:25:20;0.00;99.90
18408;DHT22;9330;52.210;21.174;2022-11-20T11:27:48;0.00;99.90
18408;DHT22;9330;52.210;21.174;2022-11-20T11:30:17;0.00;99.90
18408;DHT22;9330;52.210;21.174;2022-11-20T11:32:44;0.00;99.90
18408;DHT22;9330;52.210;21.174;2022-11-20T11:35:28;0.30;99.90
18408;DHT22;9330;52.210;21.174;2022-11-20T11:38:03;0.20;99.90
18408;DHT22;9330;52.210;21.174;2022-11-20T11:40:33;0.20;99.90
18408;DHT22;9330;52.210;21.174;2022-11-20T11:43:03;0.20;99.90
18408;DHT22;9330;52.210;21.174;2022-11-20T11:45:31;0.20;99.90
18408;DHT22;9330;52.210;21.174;2022-11-20T11:47:58;0.20;99.90
18408;DHT22;9330;52.210;21.174;2022-11-20T11:50:29;0.20;99.90
18408;DHT22;9330;52.210;21.174;2022-11-20T11:53:04;0.20;99.90
18408;DHT22;9330;52.210;21.174;2022-11-20T11:55:36;0.30;99.90
18408;DHT22;9330;52.210;21.174;2022-11-20T11:58:14;0.30;99.90
18408;DHT22;9330;52.210;21.174;2022-11-20T12:00:50;0.20;99.90
18408;DHT22;9330;52.210;21.174;2022-11-20T12:03:21;0.30;99.90
18408;DHT22;9330;52.210;21.174;2022-11-20T12:05:57;0.20;99.90
18408;DHT22;9330;52.210;21.174;2022-11-20T12:08:26;0.30;99.90
18408;DHT22;9330;52.210;21.174;2022-11-20T12:10:57;0.40;99.90
18408;DHT22;9330;52.210;21.174;2022-11-20T12:13:44;0.30;99.90
18408;DHT22;9330;52.210;21.174;2022-11-20T12:16:15;0.20;99.90
18408;DHT22;9330;52.210;21.174;2022-11-20T12:18:43;0.30;99.90
18408;DHT22;9330;52.210;21.174;2022-11-20T12:21:19;0.30;99.90
18408;DHT22;9330;52.210;21.174;2022-11-20T12:24:16;0.40;99.90
18408;DHT22;9330;52.210;21.174;2022-11-20T12:26:58;0.40;99.90
18408;DHT22;9330;52.210;21.174;2022-11-20T12:29:36;0.30;99.90
18408;DHT22;9330;52.210;21.174;2022-11-20T12:32:32;0.30;99.90
18408;DHT22;9330;52.210;21.174;2022-11-20T12:35:05;0.20;99.90
18408;DHT22;9330;52.210;21.174;2022-11-20T12:37:44;0.30;99.90
18408;DHT22;9330;52.210;21.174;2022-11-20T12:40:23;0.30;99.90
18408;DHT22;9330;52.210;21.174;2022-11-20T12:43:04;0.30;99.90
18408;DHT22;9330;52.210;21.174;2022-11-20T12:46:10;0.30;99.90
18408;DHT22;9330;52.210;21.174;2022-11-20T12:48:58;0.20;99.90
18408;DHT22;9330;52.210;21.174;2022-11-20T12:51:43;0.20;99.90
18408;DHT22;9330;52.210;21.174;2022-11-20T12:54:31;0.20;99.90
18408;DHT22;9330;52.210;21.174;2022-11-20T12:57:06;0.20;99.90
18408;DHT22;9330;52.210;21.174;2022-11-20T12:59:53;0.20;99.90
18408;DHT22;9330;52.210;21.174;2022-11-20T13:02:27;0.20;99.90
18408;DHT22;9330;52.210;21.174;2022-11-20T13:05:17;0.20;99.90
18408;DHT22;9330;52.210;21.174;2022-11-20T13:07:45;0.20;99.90
18408;DHT22;9330;52.210;21.174;2022-11-20T13:10:20;0.20;99.90
18408;DHT22;9330;52.210;21.174;2022-11-20T13:12:51;0.20;99.90
18408;DHT22;9330;52.210;21.174;2022-11-20T13:15:31;0.20;99.90
18408;DHT22;9330;52.210;21.174;2022-11-20T13:18:02;0.30;99.90
18408;DHT22;9330;52.210;21.174;2022-11-20T13:20:31;0.20;99.90
18408;DHT22;9330;52.210;21.174;2022-11-20T13:22:59;0.10;99.90
18408;DHT22;9330;52.210;21.174;2022-11-20T13:25:29;0.10;99.90
18408;DHT22;9330;52.210;21.174;2022-11-20T13:27:58;0.00;99.90
18408;DHT22;9330;52.210;21.174;2022-11-20T13:30:29;0.10;99.90
18408;DHT22;9330;52.210;21.174;2022-11-20T13:32:58;0.00;99.90
18408;DHT22;9330;52.210;21.174;2022-11-20T13:35:31;0.10;99.90
18408;DHT22;9330;52.210;21.174;2022-11-20T13:38:06;0.00;99.90
18408;DHT22;9330;52.210;21.174;2022-11-20T13:40:36;0.00;99.90
18408;DHT22;9330;52.210;21.174;2022-11-20T13:43:21;0.00;99.90
18408;DHT22;9330;52.210;21.174;2022-11-20T13:45:57;0.10;99.90
18408;DHT22;9330;52.210;21.174;2022-11-20T13:48:27;-0.10;99.90
18408;DHT22;9330;52.210;21.174;2022-11-20T13:51:05;-0.10;99.90
18408;DHT22;9330;52.210;21.174;2022-11-20T13:53:47;-0.10;99.90
18408;DHT22;9330;52.210;21.174;2022-11-20T13:56:24;-0.10;99.90
18408;DHT22;9330;52.210;21.174;2022-11-20T13:58:59;0.10;99.90
18408;DHT22;9330;52.210;21.174;2022-11-20T14:01:30;-0.10;99.90
18408;DHT22;9330;52.210;21.174;2022-11-20T14:03:58;-0.10;99.90
18408;DHT22;9330;52.210;21.174;2022-11-20T14:06:28;-0.20;99.90
18408;DHT22;9330;52.210;21.174;2022-11-20T14:08:56;-0.20;99.90
18408;DHT22;9330;52.210;21.174;2022-11-20T14:11:27;-0.20;99.90
18408;DHT22;9330;52.210;21.174;2022-11-20T14:14:00;-0.20;99.90
18408;DHT22;9330;52.210;21.174;2022-11-20T14:16:30;-0.20;99.90
18408;DHT22;9330;52.210;21.174;2022-11-20T14:19:08;-0.30;99.90
18408;DHT22;9330;52.210;21.174;2022-11-20T14:21:43;-0.40;99.90
18408;DHT22;9330;52.210;21.174;2022-11-20T14:24:12;-0.30;99.90
18408;DHT22;9330;52.210;21.174;2022-11-20T14:26:43;-0.30;99.90
18408;DHT22;9330;52.210;21.174;2022-11-20T14:29:12;-0.40;99.90
18408;DHT22;9330;52.210;21.174;2022-11-20T14:31:40;-0.50;99.90
18408;DHT22;9330;52.210;21.174;2022-11-20T14:34:13;-0.50;99.90
18408;DHT22;9330;52.210;21.174;2022-11-20T14:36:43;-0.50;99.90
18408;DHT22;9330;52.210;21.174;2022-11-20T14:39:11;-0.50;99.90
18408;DHT22;9330;52.210;21.174;2022-11-20T14:41:38;-0.60;99.90
18408;DHT22;9330;52.210;21.174;2022-11-20T14:44:09;-0.60;99.90
18408;DHT22;9330;52.210;21.174;2022-11-20T14:46:37;-0.60;99.90
18408;DHT22;9330;52.210;21.174;2022-11-20T14:49:04;-0.70;99.90
18408;DHT22;9330;52.210;21.174;2022-11-20T14:51:33;-0.70;99.90
18408;DHT22;9330;52.210;21.174;2022-11-20T14:54:10;-0.70;99.90
18408;DHT22;9330;52.210;21.174;2022-11-20T14:56:37;-0.80;99.90
18408;DHT22;9330;52.210;21.174;2022-11-20T14:59:04;-0.80;99.90
18408;DHT22;9330;52.210;21.174;2022-11-20T15:01:33;-0.80;99.90
18408;DHT22;9330;52.210;21.174;2022-11-20T15:04:04;-0.90;99.90
18408;DHT22;9330;52.210;21.174;2022-11-20T15:06:32;-1.00;99.90
18408;DHT22;9330;52.210;21.174;2022-11-20T15:08:59;-0.90;99.90
18408;DHT22;9330;52.210;21.174;2022-11-20T15:11:29;-0.90;99.90
18408;DHT22;9330;52.210;21.174;2022-11-20T15:13:58;-0.80;99.90
18408;DHT22;9330;52.210;21.174;2022-11-20T15:16:28;-0.80;99.90
18408;DHT22;9330;52.210;21.174;2022-11-20T15:18:57;-0.90;99.90
18408;DHT22;9330;52.210;21.174;2022-11-20T15:21:24;-0.90;99.90
18408;DHT22;9330;52.210;21.174;2022-11-20T15:23:51;-0.80;99.90
18408;DHT22;9330;52.210;21.174;2022-11-20T15:26:23;-0.90;99.90
18408;DHT22;9330;52.210;21.174;2022-11-20T15:28:51;-0.90;99.90
18408;DHT22;9330;52.210;21.174;2022-11-20T15:31:21;-1.00;99.90
18408;DHT22;9330;52.210;21.174;2022-11-20T15:33:48;-1.00;99.90
18408;DHT22;9330;52.210;21.174;2022-11-20T15:36:17;-1.00;99.90
18408;DHT22;9330;52.210;21.174;2022-11-20T15:38:43;-1.00;99.90
18408;DHT22;9330;52.210;21.174;2022-11-20T15:41:10;-0.90;99.90
18408;DHT22;9330;52.210;21.174;2022-11-20T15:43:37;-1.00;99.90
18408;DHT22;9330;52.210;21.174;2022-11-20T15:46:08;-1.10;99.90
18408;DHT22;9330;52.210;21.174;2022-11-20T15:48:38;-1.10;99.90
18408;DHT22;9330;52.210;21.174;2022-11-20T15:51:11;-1.10;99.90
18408;DHT22;9330;52.210;21.174;2022-11-20T15:53:43;-1.10;99.90
18408;DHT22;9330;52.210;21.174;2022-11-20T15:56:12;-1.20;99.90
18408;DHT22;9330;52.210;21.174;2022-11-20T15:58:39;-1.20;99.90